sensor_id;sensor_type;location;lat;lon;timestamp;P1;durP1;ratioP1;P2;durP2;ratioP2
39324;SDS011;25037;49.488;9.900;2022-08-01T00:01:48;2.42;;;1.80;;
39324;SDS011;25037;49.488;9.900;2022-08-01T00:04:13;3.10;;;1.90;;
39324;SDS011;25037;49.488;9.900;2022-08-01T00:06:39;6.00;;;1.98;;
39324;SDS011;25037;49.488;9.900;2022-08-01T00:09:04;4.20;;;1.90;;
39324;SDS011;25037;49.488;9.900;2022-08-01T00:11:30;2.92;;;1.85;;
39324;SDS011;25037;49.488;9.900;2022-08-01T00:13:55;3.70;;;1.92;;
39324;SDS011;25037;49.488;9.900;2022-08-01T00:16:21;4.18;;;1.90;;
39324;SDS011;25037;49.488;9.900;2022-08-01T00:18:47;4.15;;;1.98;;
39324;SDS011;25037;49.488;9.900;2022-08-01T00:21:17;2.30;;;1.63;;
39324;SDS011;25037;49.488;9.900;2022-08-01T00:23:42;4.90;;;2.17;;
39324;SDS011;25037;49.488;9.900;2022-08-01T00:26:10;4.50;;;2.08;;
39324;SDS011;25037;49.488;9.900;2022-08-01T00:28:36;2.80;;;1.60;;
39324;SDS011;25037;49.488;9.900;2022-08-01T00:31:02;4.25;;;1.70;;
39324;SDS011;25037;49.488;9.900;2022-08-01T00:33:27;2.90;;;1.80;;
39324;SDS011;25037;49.488;9.900;2022-08-01T00:35:53;4.38;;;2.33;;
39324;SDS011;25037;49.488;9.900;2022-08-01T00:38:18;4.50;;;1.70;;
39324;SDS011;25037;49.488;9.900;2022-08-01T00:40:44;4.40;;;2.00;;
39324;SDS011;25037;49.488;9.900;2022-08-01T00:43:09;3.25;;;1.75;;
39324;SDS011;25037;49.488;9.900;2022-08-01T00:45:35;5.28;;;2.20;;
39324;SDS011;25037;49.488;9.900;2022-08-01T00:48:00;3.60;;;1.95;;
39324;SDS011;25037;49.488;9.900;2022-08-01T00:50:26;2.40;;;1.80;;
39324;SDS011;25037;49.488;9.900;2022-08-01T00:52:52;4.10;;;1.80;;
39324;SDS011;25037;49.488;9.900;2022-08-01T00:55:19;3.55;;;2.15;;
39324;SDS011;25037;49.488;9.900;2022-08-01T00:57:45;3.80;;;2.20;;
39324;SDS011;25037;49.488;9.900;2022-08-01T01:00:12;3.80;;;2.00;;
39324;SDS011;25037;49.488;9.900;2022-08-01T01:02:38;2.50;;;1.80;;
39324;SDS011;25037;49.488;9.900;2022-08-01T01:05:04;4.00;;;2.15;;
39324;SDS011;25037;49.488;9.900;2022-08-01T01:07:50;3.35;;;1.80;;
39324;SDS011;25037;49.488;9.900;2022-08-01T01:10:25;2.92;;;1.80;;
39324;SDS011;25037;49.488;9.900;2022-08-01T01:13:07;2.30;;;1.45;;
39324;SDS011;25037;49.488;9.900;2022-08-01T01:15:47;3.30;;;2.10;;
39324;SDS011;25037;49.488;9.900;2022-08-01T01:18:25;4.38;;;1.75;;
39324;SDS011;25037;49.488;9.900;2022-08-01T01:21:13;3.00;;;1.98;;
39324;SDS011;25037;49.488;9.900;2022-08-01T01:26:59;3.65;;;1.85;;
39324;SDS011;25037;49.488;9.900;2022-08-01T01:29:38;3.60;;;2.20;;
39324;SDS011;25037;49.488;9.900;2022-08-01T01:34:45;3.65;;;1.90;;
39324;SDS011;25037;49.488;9.900;2022-08-01T01:37:15;3.75;;;2.00;;
39324;SDS011;25037;49.488;9.900;2022-08-01T01:39:43;3.95;;;2.30;;
39324;SDS011;25037;49.488;9.900;2022-08-01T01:42:11;3.80;;;2.33;;
39324;SDS011;25037;49.488;9.900;2022-08-01T01:44:38;4.32;;;1.95;;
39324;SDS011;25037;49.488;9.900;2022-08-01T01:47:06;5.47;;;2.20;;
39324;SDS011;25037;49.488;9.900;2022-08-01T01:49:32;4.53;;;2.33;;
39324;SDS011;25037;49.488;9.900;2022-08-01T01:51:58;5.00;;;2.28;;
39324;SDS011;25037;49.488;9.900;2022-08-01T01:54:31;2.95;;;2.03;;
39324;SDS011;25037;49.488;9.900;2022-08-01T01:57:02;3.25;;;1.92;;
39324;SDS011;25037;49.488;9.900;2022-08-01T01:59:30;5.82;;;1.80;;
39324;SDS011;25037;49.488;9.900;2022-08-01T02:01:59;3.10;;;1.95;;
39324;SDS011;25037;49.488;9.900;2022-08-01T02:04:28;3.03;;;1.60;;
39324;SDS011;25037;49.488;9.900;2022-08-01T02:06:55;4.28;;;1.73;;
39324;SDS011;25037;49.488;9.900;2022-08-01T02:09:22;3.92;;;1.92;;
39324;SDS011;25037;49.488;9.900;2022-08-01T02:11:51;3.13;;;1.77;;
39324;SDS011;25037;49.488;9.900;2022-08-01T02:14:18;3.00;;;1.85;;
39324;SDS011;25037;49.488;9.900;2022-08-01T02:16:47;4.13;;;2.00;;
39324;SDS011;25037;49.488;9.900;2022-08-01T02:19:14;3.55;;;2.20;;
39324;SDS011;25037;49.488;9.900;2022-08-01T02:21:59;4.30;;;1.80;;
39324;SDS011;25037;49.488;9.900;2022-08-01T02:24:36;3.20;;;1.90;;
39324;SDS011;25037;49.488;9.900;2022-08-01T02:27:10;3.35;;;2.22;;
39324;SDS011;25037;49.488;9.900;2022-08-01T02:29:40;3.90;;;2.00;;
39324;SDS011;25037;49.488;9.900;2022-08-01T02:32:09;4.85;;;2.05;;
39324;SDS011;25037;49.488;9.900;2022-08-01T02:34:39;3.70;;;2.15;;
39324;SDS011;25037;49.488;9.900;2022-08-01T02:37:07;3.42;;;2.05;;
39324;SDS011;25037;49.488;9.900;2022-08-01T02:39:34;3.47;;;2.40;;
39324;SDS011;25037;49.488;9.900;2022-08-01T02:42:02;3.80;;;2.05;;
39324;SDS011;25037;49.488;9.900;2022-08-01T02:44:31;3.05;;;1.77;;
39324;SDS011;25037;49.488;9.900;2022-08-01T02:47:00;2.95;;;2.10;;
39324;SDS011;25037;49.488;9.900;2022-08-01T02:49:29;3.50;;;1.92;;
39324;SDS011;25037;49.488;9.900;2022-08-01T02:52:03;2.72;;;2.08;;
39324;SDS011;25037;49.488;9.900;2022-08-01T02:54:32;5.25;;;2.15;;
39324;SDS011;25037;49.488;9.900;2022-08-01T02:56:59;3.50;;;1.85;;
39324;SDS011;25037;49.488;9.900;2022-08-01T02:59:26;3.75;;;1.67;;
39324;SDS011;25037;49.488;9.900;2022-08-01T03:01:55;2.92;;;1.70;;
39324;SDS011;25037;49.488;9.900;2022-08-01T03:04:23;4.38;;;1.80;;
39324;SDS011;25037;49.488;9.900;2022-08-01T03:06:50;3.85;;;1.85;;
39324;SDS011;25037;49.488;9.900;2022-08-01T03:09:23;7.47;;;2.33;;
39324;SDS011;25037;49.488;9.900;2022-08-01T03:11:51;2.78;;;1.90;;
39324;SDS011;25037;49.488;9.900;2022-08-01T03:14:18;4.55;;;2.00;;
39324;SDS011;25037;49.488;9.900;2022-08-01T03:16:46;2.88;;;1.80;;
39324;SDS011;25037;49.488;9.900;2022-08-01T03:19:14;3.55;;;1.80;;
39324;SDS011;25037;49.488;9.900;2022-08-01T03:21:43;2.90;;;2.17;;
39324;SDS011;25037;49.488;9.900;2022-08-01T03:24:09;3.13;;;2.08;;
39324;SDS011;25037;49.488;9.900;2022-08-01T03:26:36;3.10;;;2.10;;
39324;SDS011;25037;49.488;9.900;2022-08-01T03:29:05;2.80;;;2.40;;
39324;SDS011;25037;49.488;9.900;2022-08-01T03:31:34;4.65;;;2.15;;
39324;SDS011;25037;49.488;9.900;2022-08-01T03:34:02;5.72;;;1.92;;
39324;SDS011;25037;49.488;9.900;2022-08-01T03:36:28;2.58;;;1.95;;
39324;SDS011;25037;49.488;9.900;2022-08-01T03:38:56;3.58;;;2.22;;
39324;SDS011;25037;49.488;9.900;2022-08-01T03:41:26;4.05;;;2.33;;
39324;SDS011;25037;49.488;9.900;2022-08-01T03:43:57;3.05;;;2.00;;
39324;SDS011;25037;49.488;9.900;2022-08-01T03:46:29;3.33;;;2.10;;
39324;SDS011;25037;49.488;9.900;2022-08-01T03:49:00;4.50;;;2.28;;
39324;SDS011;25037;49.488;9.900;2022-08-01T03:51:31;4.10;;;2.00;;
39324;SDS011;25037;49.488;9.900;2022-08-01T03:53:58;2.60;;;1.75;;
39324;SDS011;25037;49.488;9.900;2022-08-01T03:56:26;3.28;;;2.13;;
39324;SDS011;25037;49.488;9.900;2022-08-01T03:58:56;4.25;;;2.30;;
39324;SDS011;25037;49.488;9.900;2022-08-01T04:01:23;3.40;;;2.10;;
39324;SDS011;25037;49.488;9.900;2022-08-01T04:03:49;4.28;;;2.03;;
39324;SDS011;25037;49.488;9.900;2022-08-01T04:06:15;3.30;;;2.55;;
39324;SDS011;25037;49.488;9.900;2022-08-01T04:08:42;4.60;;;2.33;;
39324;SDS011;25037;49.488;9.900;2022-08-01T04:11:08;3.53;;;1.85;;
39324;SDS011;25037;49.488;9.900;2022-08-01T04:13:34;3.03;;;2.03;;
39324;SDS011;25037;49.488;9.900;2022-08-01T04:15:59;3.25;;;2.38;;
39324;SDS011;25037;49.488;9.900;2022-08-01T04:18:25;3.30;;;2.05;;
39324;SDS011;25037;49.488;9.900;2022-08-01T04:20:51;3.58;;;2.30;;
39324;SDS011;25037;49.488;9.900;2022-08-01T04:23:17;4.28;;;2.10;;
39324;SDS011;25037;49.488;9.900;2022-08-01T04:25:47;3.90;;;2.15;;
39324;SDS011;25037;49.488;9.900;2022-08-01T04:28:15;4.88;;;2.17;;
39324;SDS011;25037;49.488;9.900;2022-08-01T04:30:42;3.42;;;2.05;;
39324;SDS011;25037;49.488;9.900;2022-08-01T04:33:11;2.67;;;1.75;;
39324;SDS011;25037;49.488;9.900;2022-08-01T04:35:41;4.03;;;2.15;;
39324;SDS011;25037;49.488;9.900;2022-08-01T04:38:10;6.22;;;2.90;;
39324;SDS011;25037;49.488;9.900;2022-08-01T04:40:38;5.53;;;2.67;;
39324;SDS011;25037;49.488;9.900;2022-08-01T04:43:08;4.82;;;2.30;;
39324;SDS011;25037;49.488;9.900;2022-08-01T04:45:34;3.90;;;2.40;;
39324;SDS011;25037;49.488;9.900;2022-08-01T04:48:00;5.57;;;2.47;;
39324;SDS011;25037;49.488;9.900;2022-08-01T04:50:26;3.28;;;2.10;;
39324;SDS011;25037;49.488;9.900;2022-08-01T04:52:52;3.28;;;2.00;;
39324;SDS011;25037;49.488;9.900;2022-08-01T04:55:18;3.42;;;2.35;;
39324;SDS011;25037;49.488;9.900;2022-08-01T04:57:44;6.32;;;2.20;;
39324;SDS011;25037;49.488;9.900;2022-08-01T05:00:12;3.47;;;2.03;;
39324;SDS011;25037;49.488;9.900;2022-08-01T05:02:38;4.82;;;1.70;;
39324;SDS011;25037;49.488;9.900;2022-08-01T05:05:04;3.00;;;1.92;;
39324;SDS011;25037;49.488;9.900;2022-08-01T05:07:33;4.28;;;2.22;;
39324;SDS011;25037;49.488;9.900;2022-08-01T05:10:01;3.42;;;2.13;;
39324;SDS011;25037;49.488;9.900;2022-08-01T05:12:28;4.13;;;2.53;;
39324;SDS011;25037;49.488;9.900;2022-08-01T05:14:53;5.65;;;1.95;;
39324;SDS011;25037;49.488;9.900;2022-08-01T05:17:19;3.10;;;2.35;;
39324;SDS011;25037;49.488;9.900;2022-08-01T05:19:45;3.03;;;2.00;;
39324;SDS011;25037;49.488;9.900;2022-08-01T05:22:11;3.85;;;2.20;;
39324;SDS011;25037;49.488;9.900;2022-08-01T05:24:37;5.03;;;2.15;;
39324;SDS011;25037;49.488;9.900;2022-08-01T05:27:04;4.35;;;1.63;;
39324;SDS011;25037;49.488;9.900;2022-08-01T05:29:32;3.28;;;1.70;;
39324;SDS011;25037;49.488;9.900;2022-08-01T05:31:58;2.92;;;1.90;;
39324;SDS011;25037;49.488;9.900;2022-08-01T05:34:24;4.30;;;2.42;;
39324;SDS011;25037;49.488;9.900;2022-08-01T05:36:49;5.30;;;2.50;;
39324;SDS011;25037;49.488;9.900;2022-08-01T05:39:15;4.25;;;2.10;;
39324;SDS011;25037;49.488;9.900;2022-08-01T05:41:40;3.70;;;2.17;;
39324;SDS011;25037;49.488;9.900;2022-08-01T05:44:07;3.67;;;2.28;;
39324;SDS011;25037;49.488;9.900;2022-08-01T05:46:33;3.72;;;2.28;;
39324;SDS011;25037;49.488;9.900;2022-08-01T05:48:59;3.30;;;2.10;;
39324;SDS011;25037;49.488;9.900;2022-08-01T05:51:26;5.22;;;2.53;;
39324;SDS011;25037;49.488;9.900;2022-08-01T05:53:52;6.07;;;2.10;;
39324;SDS011;25037;49.488;9.900;2022-08-01T05:56:18;3.30;;;2.42;;
39324;SDS011;25037;49.488;9.900;2022-08-01T05:58:45;3.03;;;2.00;;
39324;SDS011;25037;49.488;9.900;2022-08-01T06:01:11;4.35;;;2.47;;
39324;SDS011;25037;49.488;9.900;2022-08-01T06:03:36;3.25;;;2.13;;
39324;SDS011;25037;49.488;9.900;2022-08-01T06:06:02;3.70;;;2.35;;
39324;SDS011;25037;49.488;9.900;2022-08-01T06:08:29;3.42;;;2.20;;
39324;SDS011;25037;49.488;9.900;2022-08-01T06:10:55;3.88;;;2.13;;
39324;SDS011;25037;49.488;9.900;2022-08-01T06:13:21;4.22;;;1.98;;
39324;SDS011;25037;49.488;9.900;2022-08-01T06:15:47;5.00;;;2.53;;
39324;SDS011;25037;49.488;9.900;2022-08-01T06:18:13;3.65;;;2.05;;
39324;SDS011;25037;49.488;9.900;2022-08-01T06:20:39;2.60;;;1.70;;
39324;SDS011;25037;49.488;9.900;2022-08-01T06:23:05;3.33;;;2.10;;
39324;SDS011;25037;49.488;9.900;2022-08-01T06:25:30;3.47;;;2.00;;
39324;SDS011;25037;49.488;9.900;2022-08-01T06:27:56;3.78;;;2.10;;
39324;SDS011;25037;49.488;9.900;2022-08-01T06:30:21;4.38;;;2.10;;
39324;SDS011;25037;49.488;9.900;2022-08-01T06:32:47;3.75;;;1.80;;
39324;SDS011;25037;49.488;9.900;2022-08-01T06:35:13;3.65;;;2.22;;
39324;SDS011;25037;49.488;9.900;2022-08-01T06:37:40;3.22;;;1.83;;
39324;SDS011;25037;49.488;9.900;2022-08-01T06:40:07;4.13;;;2.05;;
39324;SDS011;25037;49.488;9.900;2022-08-01T06:42:34;4.15;;;2.00;;
39324;SDS011;25037;49.488;9.900;2022-08-01T06:45:10;3.13;;;1.40;;
39324;SDS011;25037;49.488;9.900;2022-08-01T06:47:37;5.15;;;1.90;;
39324;SDS011;25037;49.488;9.900;2022-08-01T06:50:04;2.35;;;1.48;;
39324;SDS011;25037;49.488;9.900;2022-08-01T06:52:30;3.38;;;2.08;;
39324;SDS011;25037;49.488;9.900;2022-08-01T06:54:56;4.30;;;2.03;;
39324;SDS011;25037;49.488;9.900;2022-08-01T06:57:21;3.80;;;1.45;;
39324;SDS011;25037;49.488;9.900;2022-08-01T06:59:47;2.20;;;1.45;;
39324;SDS011;25037;49.488;9.900;2022-08-01T07:02:13;4.20;;;1.77;;
39324;SDS011;25037;49.488;9.900;2022-08-01T07:04:38;2.65;;;1.27;;
39324;SDS011;25037;49.488;9.900;2022-08-01T07:07:04;2.83;;;1.50;;
39324;SDS011;25037;49.488;9.900;2022-08-01T07:09:29;2.95;;;1.33;;
39324;SDS011;25037;49.488;9.900;2022-08-01T07:11:55;2.92;;;1.73;;
39324;SDS011;25037;49.488;9.900;2022-08-01T07:14:21;2.95;;;1.13;;
39324;SDS011;25037;49.488;9.900;2022-08-01T07:16:47;2.97;;;1.60;;
39324;SDS011;25037;49.488;9.900;2022-08-01T07:19:13;3.05;;;1.60;;
39324;SDS011;25037;49.488;9.900;2022-08-01T07:21:38;2.40;;;1.38;;
39324;SDS011;25037;49.488;9.900;2022-08-01T07:24:05;3.13;;;1.58;;
39324;SDS011;25037;49.488;9.900;2022-08-01T07:26:31;2.83;;;1.35;;
39324;SDS011;25037;49.488;9.900;2022-08-01T07:28:57;3.55;;;1.88;;
39324;SDS011;25037;49.488;9.900;2022-08-01T07:31:23;3.15;;;1.50;;
39324;SDS011;25037;49.488;9.900;2022-08-01T07:33:48;2.75;;;1.45;;
39324;SDS011;25037;49.488;9.900;2022-08-01T07:36:15;2.60;;;1.52;;
39324;SDS011;25037;49.488;9.900;2022-08-01T07:38:41;2.55;;;1.30;;
39324;SDS011;25037;49.488;9.900;2022-08-01T07:41:06;3.28;;;1.65;;
39324;SDS011;25037;49.488;9.900;2022-08-01T07:43:32;2.65;;;1.67;;
39324;SDS011;25037;49.488;9.900;2022-08-01T07:45:58;2.80;;;1.33;;
39324;SDS011;25037;49.488;9.900;2022-08-01T07:48:23;2.13;;;1.05;;
39324;SDS011;25037;49.488;9.900;2022-08-01T07:50:50;1.55;;;0.90;;
39324;SDS011;25037;49.488;9.900;2022-08-01T07:53:16;4.18;;;1.38;;
39324;SDS011;25037;49.488;9.900;2022-08-01T07:55:42;3.08;;;1.33;;
39324;SDS011;25037;49.488;9.900;2022-08-01T07:58:07;2.47;;;1.17;;
39324;SDS011;25037;49.488;9.900;2022-08-01T08:00:33;3.10;;;1.17;;
39324;SDS011;25037;49.488;9.900;2022-08-01T08:02:58;4.05;;;1.20;;
39324;SDS011;25037;49.488;9.900;2022-08-01T08:05:25;2.10;;;1.08;;
39324;SDS011;25037;49.488;9.900;2022-08-01T08:07:51;4.45;;;1.35;;
39324;SDS011;25037;49.488;9.900;2022-08-01T08:10:16;2.35;;;0.90;;
39324;SDS011;25037;49.488;9.900;2022-08-01T08:12:42;2.05;;;1.00;;
39324;SDS011;25037;49.488;9.900;2022-08-01T08:15:07;3.95;;;1.45;;
39324;SDS011;25037;49.488;9.900;2022-08-01T08:17:33;1.90;;;0.95;;
39324;SDS011;25037;49.488;9.900;2022-08-01T08:20:00;1.80;;;1.10;;
39324;SDS011;25037;49.488;9.900;2022-08-01T08:22:26;2.63;;;1.10;;
39324;SDS011;25037;49.488;9.900;2022-08-01T08:24:52;1.67;;;1.00;;
39324;SDS011;25037;49.488;9.900;2022-08-01T08:27:17;2.95;;;1.42;;
39324;SDS011;25037;49.488;9.900;2022-08-01T08:29:43;3.17;;;1.20;;
39324;SDS011;25037;49.488;9.900;2022-08-01T08:32:08;2.22;;;1.00;;
39324;SDS011;25037;49.488;9.900;2022-08-01T08:34:34;1.60;;;1.00;;
39324;SDS011;25037;49.488;9.900;2022-08-01T08:37:00;4.15;;;1.13;;
39324;SDS011;25037;49.488;9.900;2022-08-01T08:39:26;2.00;;;0.95;;
39324;SDS011;25037;49.488;9.900;2022-08-01T08:41:52;3.00;;;0.85;;
39324;SDS011;25037;49.488;9.900;2022-08-01T08:44:17;2.58;;;1.10;;
39324;SDS011;25037;49.488;9.900;2022-08-01T08:46:48;2.75;;;1.35;;
39324;SDS011;25037;49.488;9.900;2022-08-01T08:49:17;2.60;;;1.10;;
39324;SDS011;25037;49.488;9.900;2022-08-01T08:51:51;3.30;;;1.55;;
39324;SDS011;25037;49.488;9.900;2022-08-01T08:57:39;3.37;;;1.10;;
39324;SDS011;25037;49.488;9.900;2022-08-01T09:00:07;1.40;;;0.80;;
39324;SDS011;25037;49.488;9.900;2022-08-01T09:02:34;2.28;;;1.05;;
39324;SDS011;25037;49.488;9.900;2022-08-01T09:05:00;2.05;;;1.10;;
39324;SDS011;25037;49.488;9.900;2022-08-01T09:07:26;2.30;;;1.02;;
39324;SDS011;25037;49.488;9.900;2022-08-01T09:09:52;2.70;;;0.98;;
39324;SDS011;25037;49.488;9.900;2022-08-01T09:12:18;4.18;;;2.00;;
39324;SDS011;25037;49.488;9.900;2022-08-01T09:14:45;3.40;;;0.80;;
39324;SDS011;25037;49.488;9.900;2022-08-01T09:17:11;2.47;;;1.00;;
39324;SDS011;25037;49.488;9.900;2022-08-01T09:19:41;2.25;;;1.05;;
39324;SDS011;25037;49.488;9.900;2022-08-01T09:22:12;1.40;;;0.80;;
39324;SDS011;25037;49.488;9.900;2022-08-01T09:24:58;2.65;;;1.17;;
39324;SDS011;25037;49.488;9.900;2022-08-01T09:27:25;2.13;;;0.90;;
39324;SDS011;25037;49.488;9.900;2022-08-01T09:29:51;2.85;;;0.90;;
39324;SDS011;25037;49.488;9.900;2022-08-01T09:32:18;1.15;;;0.52;;
39324;SDS011;25037;49.488;9.900;2022-08-01T09:34:44;1.67;;;0.95;;
39324;SDS011;25037;49.488;9.900;2022-08-01T09:37:11;1.50;;;0.75;;
39324;SDS011;25037;49.488;9.900;2022-08-01T09:39:38;2.70;;;0.77;;
39324;SDS011;25037;49.488;9.900;2022-08-01T09:44:47;1.63;;;0.80;;
39324;SDS011;25037;49.488;9.900;2022-08-01T09:47:13;2.35;;;0.90;;
39324;SDS011;25037;49.488;9.900;2022-08-01T09:49:39;1.52;;;0.98;;
39324;SDS011;25037;49.488;9.900;2022-08-01T09:52:10;1.95;;;1.20;;
39324;SDS011;25037;49.488;9.900;2022-08-01T09:54:37;1.70;;;0.70;;
39324;SDS011;25037;49.488;9.900;2022-08-01T09:57:24;1.25;;;0.68;;
39324;SDS011;25037;49.488;9.900;2022-08-01T09:59:50;2.30;;;0.98;;
39324;SDS011;25037;49.488;9.900;2022-08-01T10:02:27;2.22;;;0.88;;
39324;SDS011;25037;49.488;9.900;2022-08-01T10:04:54;1.73;;;0.80;;
39324;SDS011;25037;49.488;9.900;2022-08-01T10:07:20;1.38;;;0.75;;
39324;SDS011;25037;49.488;9.900;2022-08-01T10:09:47;1.40;;;0.70;;
39324;SDS011;25037;49.488;9.900;2022-08-01T10:12:14;2.10;;;0.82;;
39324;SDS011;25037;49.488;9.900;2022-08-01T10:14:43;3.80;;;1.00;;
39324;SDS011;25037;49.488;9.900;2022-08-01T10:17:12;2.78;;;0.82;;
39324;SDS011;25037;49.488;9.900;2022-08-01T10:19:40;1.13;;;0.60;;
39324;SDS011;25037;49.488;9.900;2022-08-01T10:22:07;1.50;;;0.70;;
39324;SDS011;25037;49.488;9.900;2022-08-01T10:24:35;2.58;;;0.93;;
39324;SDS011;25037;49.488;9.900;2022-08-01T10:27:09;1.58;;;0.57;;
39324;SDS011;25037;49.488;9.900;2022-08-01T10:32:21;2.38;;;1.15;;
39324;SDS011;25037;49.488;9.900;2022-08-01T10:34:48;1.65;;;0.50;;
39324;SDS011;25037;49.488;9.900;2022-08-01T10:37:14;1.05;;;0.52;;
39324;SDS011;25037;49.488;9.900;2022-08-01T10:39:42;1.17;;;0.60;;
39324;SDS011;25037;49.488;9.900;2022-08-01T10:42:09;1.35;;;0.50;;
39324;SDS011;25037;49.488;9.900;2022-08-01T10:44:35;1.67;;;0.73;;
39324;SDS011;25037;49.488;9.900;2022-08-01T10:47:12;2.50;;;0.60;;
39324;SDS011;25037;49.488;9.900;2022-08-01T10:49:53;1.15;;;0.52;;
39324;SDS011;25037;49.488;9.900;2022-08-01T10:52:27;1.85;;;0.80;;
39324;SDS011;25037;49.488;9.900;2022-08-01T10:55:05;1.25;;;0.68;;
39324;SDS011;25037;49.488;9.900;2022-08-01T10:57:44;1.83;;;0.73;;
39324;SDS011;25037;49.488;9.900;2022-08-01T11:00:17;1.35;;;0.70;;
39324;SDS011;25037;49.488;9.900;2022-08-01T11:02:56;0.98;;;0.52;;
39324;SDS011;25037;49.488;9.900;2022-08-01T11:05:25;1.60;;;0.73;;
39324;SDS011;25037;49.488;9.900;2022-08-01T11:07:53;1.90;;;0.70;;
39324;SDS011;25037;49.488;9.900;2022-08-01T11:13:04;1.08;;;0.50;;
39324;SDS011;25037;49.488;9.900;2022-08-01T11:15:33;2.25;;;0.90;;
39324;SDS011;25037;49.488;9.900;2022-08-01T11:18:03;1.75;;;0.50;;
39324;SDS011;25037;49.488;9.900;2022-08-01T11:20:59;1.15;;;0.57;;
39324;SDS011;25037;49.488;9.900;2022-08-01T11:23:27;3.17;;;0.70;;
39324;SDS011;25037;49.488;9.900;2022-08-01T11:28:26;1.80;;;0.70;;
39324;SDS011;25037;49.488;9.900;2022-08-01T11:30:54;1.85;;;0.55;;
39324;SDS011;25037;49.488;9.900;2022-08-01T11:38:42;1.60;;;0.70;;
39324;SDS011;25037;49.488;9.900;2022-08-01T11:41:14;1.80;;;0.70;;
39324;SDS011;25037;49.488;9.900;2022-08-01T11:43:56;1.45;;;0.60;;
39324;SDS011;25037;49.488;9.900;2022-08-01T11:52:26;0.77;;;0.50;;
39324;SDS011;25037;49.488;9.900;2022-08-01T11:57:29;1.10;;;0.70;;
39324;SDS011;25037;49.488;9.900;2022-08-01T11:59:58;1.45;;;0.60;;
39324;SDS011;25037;49.488;9.900;2022-08-01T12:02:28;0.80;;;0.50;;
39324;SDS011;25037;49.488;9.900;2022-08-01T12:05:02;0.80;;;0.50;;
39324;SDS011;25037;49.488;9.900;2022-08-01T12:07:36;1.98;;;0.80;;
39324;SDS011;25037;49.488;9.900;2022-08-01T12:10:07;1.33;;;0.52;;
39324;SDS011;25037;49.488;9.900;2022-08-01T12:12:41;2.33;;;0.60;;
39324;SDS011;25037;49.488;9.900;2022-08-01T12:15:11;1.17;;;0.60;;
39324;SDS011;25037;49.488;9.900;2022-08-01T12:17:38;2.38;;;0.80;;
39324;SDS011;25037;49.488;9.900;2022-08-01T12:20:11;0.95;;;0.60;;
39324;SDS011;25037;49.488;9.900;2022-08-01T12:22:39;1.13;;;0.55;;
39324;SDS011;25037;49.488;9.900;2022-08-01T12:25:08;1.30;;;0.52;;
39324;SDS011;25037;49.488;9.900;2022-08-01T12:27:41;3.60;;;0.80;;
39324;SDS011;25037;49.488;9.900;2022-08-01T12:30:09;1.90;;;0.50;;
39324;SDS011;25037;49.488;9.900;2022-08-01T12:32:37;2.10;;;0.70;;
39324;SDS011;25037;49.488;9.900;2022-08-01T12:37:38;1.17;;;0.43;;
39324;SDS011;25037;49.488;9.900;2022-08-01T12:40:24;1.42;;;0.50;;
39324;SDS011;25037;49.488;9.900;2022-08-01T12:42:56;1.92;;;0.80;;
39324;SDS011;25037;49.488;9.900;2022-08-01T12:45:30;1.02;;;0.50;;
39324;SDS011;25037;49.488;9.900;2022-08-01T12:48:00;0.63;;;0.43;;
39324;SDS011;25037;49.488;9.900;2022-08-01T12:50:28;1.65;;;1.00;;
39324;SDS011;25037;49.488;9.900;2022-08-01T12:52:55;1.15;;;0.50;;
39324;SDS011;25037;49.488;9.900;2022-08-01T12:55:22;1.30;;;0.65;;
39324;SDS011;25037;49.488;9.900;2022-08-01T12:58:29;2.13;;;0.90;;
39324;SDS011;25037;49.488;9.900;2022-08-01T13:00:45;1.20;;;0.60;;
39324;SDS011;25037;49.488;9.900;2022-08-01T13:03:13;1.23;;;0.70;;
39324;SDS011;25037;49.488;9.900;2022-08-01T13:05:47;0.60;;;0.40;;
39324;SDS011;25037;49.488;9.900;2022-08-01T13:08:33;1.65;;;0.82;;
39324;SDS011;25037;49.488;9.900;2022-08-01T13:11:00;1.05;;;0.60;;
39324;SDS011;25037;49.488;9.900;2022-08-01T13:13:36;1.15;;;0.68;;
39324;SDS011;25037;49.488;9.900;2022-08-01T13:16:04;1.45;;;0.70;;
39324;SDS011;25037;49.488;9.900;2022-08-01T13:18:32;0.85;;;0.50;;
39324;SDS011;25037;49.488;9.900;2022-08-01T13:26:41;1.38;;;0.70;;
39324;SDS011;25037;49.488;9.900;2022-08-01T13:29:34;1.70;;;0.70;;
39324;SDS011;25037;49.488;9.900;2022-08-01T13:32:19;1.07;;;0.53;;
39324;SDS011;25037;49.488;9.900;2022-08-01T13:34:46;0.90;;;0.70;;
39324;SDS011;25037;49.488;9.900;2022-08-01T13:37:12;1.05;;;0.60;;
39324;SDS011;25037;49.488;9.900;2022-08-01T13:39:37;1.52;;;0.80;;
39324;SDS011;25037;49.488;9.900;2022-08-01T13:42:06;2.20;;;0.80;;
39324;SDS011;25037;49.488;9.900;2022-08-01T13:44:35;1.10;;;0.60;;
39324;SDS011;25037;49.488;9.900;2022-08-01T13:47:02;1.60;;;0.45;;
39324;SDS011;25037;49.488;9.900;2022-08-01T13:49:29;1.13;;;0.60;;
39324;SDS011;25037;49.488;9.900;2022-08-01T13:51:54;1.17;;;0.50;;
39324;SDS011;25037;49.488;9.900;2022-08-01T13:54:20;0.85;;;0.50;;
39324;SDS011;25037;49.488;9.900;2022-08-01T13:56:45;1.02;;;0.50;;
39324;SDS011;25037;49.488;9.900;2022-08-01T13:59:11;1.00;;;0.40;;
39324;SDS011;25037;49.488;9.900;2022-08-01T14:01:37;1.38;;;0.50;;
39324;SDS011;25037;49.488;9.900;2022-08-01T14:04:02;2.65;;;0.60;;
39324;SDS011;25037;49.488;9.900;2022-08-01T14:06:28;0.90;;;0.50;;
39324;SDS011;25037;49.488;9.900;2022-08-01T14:08:54;1.55;;;0.63;;
39324;SDS011;25037;49.488;9.900;2022-08-01T14:11:20;1.35;;;0.75;;
39324;SDS011;25037;49.488;9.900;2022-08-01T14:13:45;0.73;;;0.50;;
39324;SDS011;25037;49.488;9.900;2022-08-01T14:16:11;1.13;;;0.40;;
39324;SDS011;25037;49.488;9.900;2022-08-01T14:18:36;1.58;;;0.55;;
39324;SDS011;25037;49.488;9.900;2022-08-01T14:21:02;0.95;;;0.55;;
39324;SDS011;25037;49.488;9.900;2022-08-01T14:23:27;0.88;;;0.60;;
39324;SDS011;25037;49.488;9.900;2022-08-01T14:25:53;2.05;;;0.40;;
39324;SDS011;25037;49.488;9.900;2022-08-01T14:28:18;1.05;;;0.50;;
39324;SDS011;25037;49.488;9.900;2022-08-01T14:30:44;1.58;;;0.60;;
39324;SDS011;25037;49.488;9.900;2022-08-01T14:33:10;1.38;;;0.60;;
39324;SDS011;25037;49.488;9.900;2022-08-01T14:35:36;1.27;;;0.75;;
39324;SDS011;25037;49.488;9.900;2022-08-01T14:38:02;2.35;;;0.77;;
39324;SDS011;25037;49.488;9.900;2022-08-01T14:40:27;1.25;;;0.40;;
39324;SDS011;25037;49.488;9.900;2022-08-01T14:42:53;1.05;;;0.40;;
39324;SDS011;25037;49.488;9.900;2022-08-01T14:45:19;1.40;;;0.47;;
39324;SDS011;25037;49.488;9.900;2022-08-01T14:47:44;1.00;;;0.45;;
39324;SDS011;25037;49.488;9.900;2022-08-01T14:50:13;1.08;;;0.50;;
39324;SDS011;25037;49.488;9.900;2022-08-01T14:52:40;2.05;;;0.60;;
39324;SDS011;25037;49.488;9.900;2022-08-01T14:55:08;0.95;;;0.52;;
39324;SDS011;25037;49.488;9.900;2022-08-01T14:57:35;2.35;;;0.50;;
39324;SDS011;25037;49.488;9.900;2022-08-01T15:00:03;0.63;;;0.40;;
39324;SDS011;25037;49.488;9.900;2022-08-01T15:02:30;1.73;;;0.85;;
39324;SDS011;25037;49.488;9.900;2022-08-01T15:04:55;2.20;;;0.60;;
39324;SDS011;25037;49.488;9.900;2022-08-01T15:07:21;2.00;;;0.60;;
39324;SDS011;25037;49.488;9.900;2022-08-01T15:09:46;0.70;;;0.55;;
39324;SDS011;25037;49.488;9.900;2022-08-01T15:12:12;0.50;;;0.40;;
39324;SDS011;25037;49.488;9.900;2022-08-01T15:14:38;0.73;;;0.47;;
39324;SDS011;25037;49.488;9.900;2022-08-01T15:17:17;0.80;;;0.70;;
39324;SDS011;25037;49.488;9.900;2022-08-01T15:19:59;2.53;;;1.10;;
39324;SDS011;25037;49.488;9.900;2022-08-01T15:22:26;2.22;;;0.70;;
39324;SDS011;25037;49.488;9.900;2022-08-01T15:24:53;3.17;;;0.50;;
39324;SDS011;25037;49.488;9.900;2022-08-01T15:27:20;1.92;;;0.60;;
39324;SDS011;25037;49.488;9.900;2022-08-01T15:29:46;1.17;;;0.55;;
39324;SDS011;25037;49.488;9.900;2022-08-01T15:32:12;1.10;;;0.43;;
39324;SDS011;25037;49.488;9.900;2022-08-01T15:34:39;1.00;;;0.75;;
39324;SDS011;25037;49.488;9.900;2022-08-01T15:37:05;1.05;;;0.60;;